Time;durP1;ratioP1;P1;durP2;ratioP2;P2;SDS_P1;SDS_P2;PMS_P1;PMS_P2;Temp;Humidity;BMP_temperature;BMP_pressure;BME280_temperature;BME280_humidity;BME280_pressure;Samples;Min_cycle;Max_cycle;Signal;HPM_P1;HPM_P2
2021/11/27 00:01:09;;;;;;;8.98;6.32;;;;;;;2.62;90.51;98062.53;4975973;28;20061;-84
2021/11/27 00:03:36;;;;;;;7.90;6.55;;;;;;;2.62;90.87;98054.78;4948445;28;20034;-80
2021/11/27 00:06:03;;;;;;;7.32;5.75;;;;;;;2.65;90.08;98062.44;4943988;28;20058;-81
2021/11/27 00:08:30;;;;;;;9.27;5.65;;;;;;;2.68;90.54;98052.94;4937090;28;20124;-85
2021/11/27 00:10:59;;;;;;;11.93;6.65;;;;;;;2.72;90.22;98055.44;4954897;28;20400;-80
2021/11/27 00:13:27;;;;;;;7.65;6.22;;;;;;;2.72;90.03;98052.00;4952689;28;20124;-79
2021/11/27 00:15:54;;;;;;;11.35;6.78;;;;;;;2.73;90.79;98054.56;4954594;28;20046;-84
2021/11/27 00:18:22;;;;;;;10.52;7.22;;;;;;;2.71;90.62;98047.72;4950215;28;20068;-85
2021/11/27 00:21:01;;;;;;;9.45;6.10;;;;;;;2.70;91.04;98039.13;4960673;28;20089;-84
2021/11/27 00:23:30;;;;;;;7.35;5.43;;;;;;;2.68;91.30;98046.03;4960004;28;20046;-79
2021/11/27 00:25:58;;;;;;;8.10;5.30;;;;;;;2.69;91.12;98041.75;4956245;28;20157;-84
2021/11/27 00:28:25;;;;;;;7.40;5.38;;;;;;;2.70;91.68;98046.00;4958027;28;20246;-84
2021/11/27 00:30:57;;;;;;;12.00;5.93;;;;;;;2.71;91.45;98050.31;4959823;28;20050;-79
2021/11/27 00:33:24;;;;;;;9.82;6.53;;;;;;;2.68;91.80;98034.88;4962392;28;20057;-82
2021/11/27 00:35:51;;;;;;;6.38;5.00;;;;;;;2.69;91.60;98040.00;4960515;28;20054;-79
2021/11/27 00:38:18;;;;;;;7.82;5.30;;;;;;;2.66;91.80;98032.31;4960847;28;20049;-80
2021/11/27 00:40:45;;;;;;;8.60;6.45;;;;;;;2.67;91.73;98039.16;4975896;28;20108;-83
2021/11/27 00:43:14;;;;;;;8.73;5.55;;;;;;;2.65;91.67;98036.63;4960269;28;20132;-82
2021/11/27 00:45:43;;;;;;;7.75;6.13;;;;;;;2.67;91.81;98036.59;4967857;28;20050;-85
2021/11/27 00:48:12;;;;;;;9.43;6.07;;;;;;;2.67;91.62;98038.34;4976241;28;20667;-87
2021/11/27 00:50:47;;;;;;;7.85;5.43;;;;;;;2.67;91.62;98031.41;4965766;28;20507;-80
2021/11/27 00:53:14;;;;;;;8.57;5.40;;;;;;;2.69;91.33;98039.16;4960551;28;20073;-79
2021/11/27 00:55:45;;;;;;;8.48;5.55;;;;;;;2.68;91.58;98029.72;4963408;28;20057;-85
2021/11/27 00:58:12;;;;;;;9.88;5.95;;;;;;;2.67;91.76;98030.59;4962718;28;20919;-85
2021/11/27 01:00:46;;;;;;;8.57;5.63;;;;;;;2.68;92.05;98030.53;4975783;28;20038;-81
2021/11/27 01:03:17;;;;;;;8.35;6.30;;;;;;;2.68;91.44;98034.88;4978431;28;20109;-80
2021/11/27 01:05:44;;;;;;;10.57;6.15;;;;;;;2.67;91.58;98034.00;4977559;28;20054;-81
2021/11/27 01:08:12;;;;;;;7.20;4.78;;;;;;;2.72;91.36;98028.75;4981570;28;20046;-78
2021/11/27 01:11:13;;;;;;;7.32;5.53;;;;;;;2.73;91.51;98022.72;4980095;28;20124;-78
2021/11/27 01:13:44;;;;;;;5.03;4.45;;;;;;;2.70;91.87;98023.63;4952517;28;20432;-82
2021/11/27 01:16:12;;;;;;;12.40;7.40;;;;;;;2.69;92.24;98026.25;4959751;28;20690;-82
2021/11/27 01:18:39;;;;;;;8.43;5.55;;;;;;;2.67;92.13;98028.00;4957262;28;20050;-79
2021/11/27 01:21:11;;;;;;;6.57;4.65;;;;;;;2.63;92.27;98024.63;4950188;28;20109;-81
2021/11/27 01:23:40;;;;;;;8.38;5.63;;;;;;;2.62;92.54;98031.53;4964782;28;20054;-79
2021/11/27 01:26:07;;;;;;;8.10;5.50;;;;;;;2.60;93.39;98024.69;4960971;28;20117;-79
2021/11/27 01:28:34;;;;;;;10.50;5.93;;;;;;;2.56;93.60;98017.88;4965203;28;20692;-79
2021/11/27 01:31:03;;;;;;;8.63;5.60;;;;;;;2.52;94.15;98021.41;4959813;28;20864;-83
2021/11/27 01:33:31;;;;;;;6.93;4.75;;;;;;;2.48;94.51;98024.03;4961480;28;20057;-79
2021/11/27 01:35:59;;;;;;;7.43;5.55;;;;;;;2.44;94.97;98021.53;4981385;28;20042;-81
2021/11/27 01:38:26;;;;;;;7.13;5.20;;;;;;;2.36;95.76;98023.41;4962592;28;20074;-80
2021/11/27 01:40:54;;;;;;;10.13;5.47;;;;;;;2.28;95.86;98023.53;4983468;28;20061;-81
2021/11/27 01:43:22;;;;;;;6.72;5.72;;;;;;;2.22;96.94;98024.50;4956462;28;20041;-79
2021/11/27 01:45:50;;;;;;;7.53;5.22;;;;;;;2.14;97.17;98023.78;4965740;28;20448;-83
2021/11/27 01:48:18;;;;;;;6.97;5.13;;;;;;;2.06;97.55;98017.91;4966789;28;20061;-82
2021/11/27 01:51:05;;;;;;;7.43;5.28;;;;;;;1.98;97.81;98007.69;4963208;28;20172;-83
2021/11/27 01:53:37;;;;;;;6.63;4.30;;;;;;;1.91;98.73;98011.28;4966075;28;20057;-78
2021/11/27 01:56:11;;;;;;;8.32;4.88;;;;;;;1.87;99.05;98015.63;4964661;28;20788;-80
2021/11/27 01:58:38;;;;;;;8.88;4.65;;;;;;;1.84;99.33;98013.13;4967492;28;20056;-78
2021/11/27 02:01:12;;;;;;;7.65;4.80;;;;;;;1.85;99.19;98013.94;4974838;28;20050;-79
2021/11/27 02:03:41;;;;;;;9.75;4.68;;;;;;;1.83;99.49;98013.97;4964050;28;20202;-81
2021/11/27 02:06:12;;;;;;;5.57;4.40;;;;;;;1.85;99.29;98004.47;4967019;28;20089;-79
2021/11/27 02:08:43;;;;;;;8.35;4.93;;;;;;;1.91;99.41;98004.38;4962431;28;21305;-84
2021/11/27 02:11:13;;;;;;;5.07;4.38;;;;;;;1.92;99.28;98003.50;4961023;28;20049;-82
2021/11/27 02:13:40;;;;;;;6.63;4.43;;;;;;;1.97;99.18;98000.88;4941032;28;21625;-83
2021/11/27 02:16:07;;;;;;;7.05;4.68;;;;;;;2.02;98.44;98009.38;4948741;28;20065;-80
2021/11/27 02:18:34;;;;;;;5.50;3.92;;;;;;;2.05;98.29;98011.06;4977802;28;20046;-81
2021/11/27 02:21:09;;;;;;;4.97;4.13;;;;;;;2.09;98.17;98007.53;4941537;28;20155;-79
2021/11/27 02:23:38;;;;;;;5.70;3.92;;;;;;;2.13;97.17;98007.44;4958822;28;20116;-83
2021/11/27 02:26:11;;;;;;;7.65;4.43;;;;;;;2.20;97.17;98007.34;4959231;28;20914;-82
2021/11/27 02:28:41;;;;;;;5.85;3.67;;;;;;;2.23;97.06;98009.84;4963831;28;20058;-80
2021/11/27 02:31:08;;;;;;;4.57;3.50;;;;;;;2.26;96.96;98010.66;4970479;28;20917;-77
2021/11/27 02:33:35;;;;;;;6.65;3.65;;;;;;;2.32;96.50;98012.28;4980832;28;21073;-82
2021/11/27 02:36:02;;;;;;;4.70;3.58;;;;;;;2.34;95.79;98014.84;4968784;28;20500;-84
2021/11/27 02:38:28;;;;;;;4.55;3.70;;;;;;;2.36;95.51;98006.19;4982917;28;20060;-81
2021/11/27 02:40:55;;;;;;;6.03;3.45;;;;;;;2.40;95.32;98010.41;4982298;28;20580;-84
2021/11/27 02:43:22;;;;;;;6.95;3.35;;;;;;;2.41;95.68;98004.38;4977038;28;20034;-81
2021/11/27 02:45:48;;;;;;;5.95;3.67;;;;;;;2.43;95.31;98012.94;4965058;28;20766;-86
2021/11/27 02:48:15;;;;;;;3.97;3.65;;;;;;;2.48;94.85;98015.44;4989969;28;20045;-81
2021/11/27 02:50:42;;;;;;;5.85;3.75;;;;;;;2.47;95.12;98012.00;4978037;28;20058;-82
2021/11/27 02:53:09;;;;;;;3.83;3.50;;;;;;;2.50;95.10;98005.06;4978084;28;20051;-82
2021/11/27 02:55:35;;;;;;;3.53;3.20;;;;;;;2.50;94.45;98005.91;4983955;28;20050;-83
2021/11/27 02:58:02;;;;;;;3.80;3.30;;;;;;;2.52;94.19;98006.75;4981882;28;20041;-83
2021/11/27 03:00:29;;;;;;;5.55;3.53;;;;;;;2.53;94.31;98003.28;4982830;28;20200;-80
2021/11/27 03:02:56;;;;;;;4.32;3.33;;;;;;;2.55;94.38;98001.50;4973052;28;20046;-84
2021/11/27 03:05:23;;;;;;;3.53;2.95;;;;;;;2.57;94.03;97998.91;4974364;28;20058;-80
2021/11/27 03:07:51;;;;;;;3.65;3.25;;;;;;;2.59;93.88;98003.16;4999594;28;21069;-85
2021/11/27 03:10:19;;;;;;;4.55;4.05;;;;;;;2.62;93.72;97997.06;4985688;28;20050;-83
2021/11/27 03:12:46;;;;;;;5.63;3.40;;;;;;;2.64;93.95;97995.34;4958536;28;20072;-82
2021/11/27 03:15:16;;;;;;;5.57;3.75;;;;;;;2.65;93.76;98002.19;4981946;28;20134;-83
2021/11/27 03:17:44;;;;;;;4.65;3.35;;;;;;;2.65;93.39;97997.88;4974387;28;20050;-80
2021/11/27 03:20:13;;;;;;;5.70;3.90;;;;;;;2.65;93.21;97995.28;4967506;28;20068;-82
2021/11/27 03:22:41;;;;;;;3.72;3.38;;;;;;;2.63;93.17;97991.91;4969098;28;20144;-84
2021/11/27 03:25:10;;;;;;;4.18;3.30;;;;;;;2.64;93.27;97991.00;4961530;28;20143;-82
2021/11/27 03:27:38;;;;;;;3.97;3.60;;;;;;;2.65;93.21;98000.47;4974273;28;20050;-80
2021/11/27 03:30:09;;;;;;;4.72;3.15;;;;;;;2.66;93.17;98003.91;4961522;28;20069;-78
2021/11/27 03:32:36;;;;;;;4.32;3.55;;;;;;;2.64;92.51;98006.50;4961100;28;20172;-80
2021/11/27 03:35:04;;;;;;;5.25;3.00;;;;;;;2.66;92.93;98009.06;4977628;28;20801;-79
2021/11/27 03:37:30;;;;;;;3.45;3.13;;;;;;;2.67;92.93;98002.16;4974888;28;20088;-85
2021/11/27 03:39:57;;;;;;;5.22;3.53;;;;;;;2.69;92.78;98001.25;4964010;28;20050;-81
2021/11/27 03:42:24;;;;;;;5.88;3.38;;;;;;;2.72;92.64;98005.50;4957170;28;20054;-79
2021/11/27 03:44:51;;;;;;;4.13;2.92;;;;;;;2.73;93.00;97999.47;4979387;28;20927;-83
2021/11/27 03:47:18;;;;;;;3.92;3.58;;;;;;;2.73;92.59;98000.31;4960756;28;20078;-80
2021/11/27 03:49:45;;;;;;;3.13;2.83;;;;;;;2.76;92.56;98004.56;4960525;28;20168;-79
2021/11/27 03:52:12;;;;;;;4.70;3.38;;;;;;;2.76;92.67;98007.97;4943500;28;20054;-83
2021/11/27 03:54:38;;;;;;;7.88;4.15;;;;;;;2.77;92.30;98004.53;4962550;28;20038;-81
2021/11/27 03:57:05;;;;;;;4.47;2.97;;;;;;;2.78;92.10;98005.41;4958417;28;20133;-81
2021/11/27 03:59:32;;;;;;;6.35;2.85;;;;;;;2.80;92.56;98008.78;4961571;28;20050;-83
2021/11/27 04:02:02;;;;;;;4.88;3.40;;;;;;;2.78;92.29;98007.97;4956604;28;20046;-80
2021/11/27 04:04:29;;;;;;;3.60;3.03;;;;;;;2.79;92.53;98000.19;4960395;28;20759;-83
2021/11/27 04:06:56;;;;;;;4.90;3.53;;;;;;;2.79;92.10;98012.25;4947435;28;20050;-79
2021/11/27 04:09:22;;;;;;;5.13;3.75;;;;;;;2.80;92.28;98004.47;4974667;28;20042;-81
2021/11/27 04:11:49;;;;;;;3.30;2.88;;;;;;;2.81;92.54;98007.91;4959230;28;20061;-80
2021/11/27 04:14:16;;;;;;;5.53;3.30;;;;;;;2.81;92.11;98010.50;4959875;28;20049;-81
2021/11/27 04:16:42;;;;;;;3.63;3.20;;;;;;;2.84;92.14;98009.56;4976862;28;20049;-81
2021/11/27 04:19:09;;;;;;;2.90;2.70;;;;;;;2.81;92.28;98008.75;4957284;28;20100;-83
2021/11/27 04:21:36;;;;;;;3.72;3.28;;;;;;;2.85;91.84;98016.47;4958088;28;20073;-83
2021/11/27 04:24:03;;;;;;;3.70;2.78;;;;;;;2.85;91.73;98014.72;4961652;28;20049;-79
2021/11/27 04:26:30;;;;;;;3.58;3.25;;;;;;;2.88;91.33;98008.63;4956467;28;20100;-80
2021/11/27 04:28:58;;;;;;;3.47;3.17;;;;;;;2.90;91.81;98007.72;4977375;28;20061;-83
2021/11/27 04:31:24;;;;;;;3.50;2.67;;;;;;;2.91;90.95;98009.44;4972793;28;23292;-84
2021/11/27 04:33:52;;;;;;;3.53;2.75;;;;;;;2.91;90.99;98006.84;4964930;28;20035;-86
2021/11/27 04:36:19;;;;;;;2.83;2.55;;;;;;;2.94;90.56;98021.44;4979291;28;20038;-83
2021/11/27 04:38:47;;;;;;;5.68;2.67;;;;;;;2.95;91.12;98015.38;4958096;28;20061;-82
2021/11/27 04:41:14;;;;;;;2.97;2.13;;;;;;;2.97;90.96;98017.06;4978821;28;20140;-83
2021/11/27 04:43:41;;;;;;;3.92;2.42;;;;;;;3.00;90.85;98023.03;4959026;28;20392;-79
2021/11/27 04:46:07;;;;;;;2.97;2.55;;;;;;;3.00;90.55;98023.91;4945270;28;20134;-82
2021/11/27 04:48:34;;;;;;;3.10;2.80;;;;;;;3.04;90.68;98027.25;4948834;28;20042;-82
2021/11/27 04:51:02;;;;;;;3.88;3.00;;;;;;;3.05;90.28;98028.94;4957618;28;20042;-80
2021/11/27 04:53:28;;;;;;;3.40;2.65;;;;;;;3.04;90.19;98029.81;4958497;28;20112;-84
2021/11/27 04:55:58;;;;;;;3.13;2.67;;;;;;;3.02;89.82;98029.88;4959702;28;20058;-80
2021/11/27 04:58:25;;;;;;;3.05;2.38;;;;;;;3.02;89.58;98029.03;4977944;28;21069;-78
2021/11/27 05:00:54;;;;;;;3.50;3.20;;;;;;;3.01;90.05;98043.66;4963847;28;20158;-82
2021/11/27 05:03:21;;;;;;;2.85;2.65;;;;;;;3.03;89.73;98043.66;4958941;28;20047;-83
2021/11/27 05:05:48;;;;;;;3.75;2.78;;;;;;;3.04;89.35;98046.22;4963928;28;20503;-79
2021/11/27 05:08:15;;;;;;;3.10;2.55;;;;;;;3.03;89.65;98046.25;4962107;28;20061;-78
2021/11/27 05:10:42;;;;;;;2.35;1.92;;;;;;;3.06;89.25;98041.00;4956571;28;20054;-80
2021/11/27 05:13:09;;;;;;;2.28;1.75;;;;;;;3.05;89.36;98044.47;4981764;28;20083;-85
2021/11/27 05:15:35;;;;;;;2.22;2.03;;;;;;;3.06;89.34;98046.16;4947975;28;20050;-83
2021/11/27 05:18:02;;;;;;;2.97;2.55;;;;;;;3.06;89.51;98046.16;4947146;28;20057;-77
2021/11/27 05:20:29;;;;;;;2.80;2.00;;;;;;;3.08;89.48;98052.16;4944618;28;20165;-81
2021/11/27 05:22:56;;;;;;;4.25;3.63;;;;;;;3.08;88.80;98054.75;4948939;28;20046;-80
2021/11/27 05:25:23;;;;;;;2.22;1.92;;;;;;;3.06;89.25;98064.25;4983257;28;20109;-83
2021/11/27 05:27:49;;;;;;;3.42;2.58;;;;;;;3.05;89.35;98073.75;4958216;28;20556;-81
2021/11/27 05:30:16;;;;;;;3.15;2.88;;;;;;;3.05;90.16;98067.72;4963412;28;20129;-79
2021/11/27 05:33:06;;;;;;;2.33;2.15;;;;;;;3.03;90.35;98072.09;4964719;28;21206;-80
2021/11/27 05:35:39;;;;;;;2.35;2.15;;;;;;;3.07;90.84;98077.16;4948067;28;20050;-80
2021/11/27 05:38:06;;;;;;;2.33;1.52;;;;;;;2.95;91.10;98074.81;4966312;28;20493;-84
2021/11/27 05:40:37;;;;;;;2.35;2.15;;;;;;;2.89;92.39;98080.09;4959640;28;20575;-82
2021/11/27 05:43:05;;;;;;;3.40;2.28;;;;;;;2.83;92.81;98078.50;4961814;28;20054;-86
2021/11/27 05:45:32;;;;;;;3.10;1.75;;;;;;;2.78;93.18;98085.47;4960051;28;20056;-81
2021/11/27 05:48:04;;;;;;;2.85;2.10;;;;;;;2.73;94.03;98092.47;4960683;28;20051;-78
2021/11/27 05:50:35;;;;;;;2.17;1.88;;;;;;;2.69;94.70;98085.66;4979442;28;20057;-82
2021/11/27 05:53:05;;;;;;;2.53;2.28;;;;;;;2.64;95.27;98083.97;4960303;28;20752;-79
2021/11/27 05:55:32;;;;;;;2.22;2.13;;;;;;;2.62;95.45;98079.72;4966695;28;20050;-81
2021/11/27 05:57:59;;;;;;;2.67;2.38;;;;;;;2.58;96.04;98081.53;4964311;28;20177;-82
2021/11/27 06:00:25;;;;;;;2.10;2.00;;;;;;;2.53;96.31;98082.47;4958475;28;20038;-81
2021/11/27 06:02:52;;;;;;;1.83;1.73;;;;;;;2.50;97.09;98075.63;4947102;28;20333;-84
2021/11/27 06:05:19;;;;;;;3.45;2.13;;;;;;;2.48;97.06;98080.00;4930941;28;20034;-81
2021/11/27 06:07:45;;;;;;;2.05;1.90;;;;;;;2.45;97.14;98077.44;4948642;28;20042;-82
2021/11/27 06:10:12;;;;;;;2.20;2.00;;;;;;;2.44;97.29;98083.53;4962633;28;20053;-83
2021/11/27 06:12:40;;;;;;;2.78;2.05;;;;;;;2.45;97.69;98085.19;4953386;28;20043;-82
2021/11/27 06:15:07;;;;;;;1.85;1.75;;;;;;;2.43;97.49;98094.72;4972389;28;20134;-79
2021/11/27 06:17:34;;;;;;;1.70;1.60;;;;;;;2.42;97.87;98095.59;4940487;28;21602;-85
2021/11/27 06:20:01;;;;;;;3.53;2.15;;;;;;;2.42;97.63;98108.50;4959666;28;20056;-79
2021/11/27 06:22:27;;;;;;;2.38;2.17;;;;;;;2.43;98.37;98105.03;4980774;28;20157;-83
2021/11/27 06:24:54;;;;;;;3.00;2.42;;;;;;;2.42;98.26;98114.50;4972015;28;20122;-82
2021/11/27 06:27:21;;;;;;;2.78;2.47;;;;;;;2.42;98.16;98119.66;4966247;28;20057;-82
2021/11/27 06:29:54;;;;;;;2.60;2.40;;;;;;;2.40;98.55;98120.56;4977777;28;20121;-83
2021/11/27 06:32:23;;;;;;;3.00;2.80;;;;;;;2.41;98.53;98115.41;4966006;28;20046;-78
2021/11/27 06:34:54;;;;;;;2.55;2.35;;;;;;;2.42;98.47;98124.00;4965205;28;20618;-79
2021/11/27 06:37:23;;;;;;;2.47;2.00;;;;;;;2.40;98.82;98118.84;4960010;28;20050;-79
2021/11/27 06:39:52;;;;;;;2.80;2.58;;;;;;;2.40;98.51;98121.44;4965075;28;20043;-82
2021/11/27 06:42:20;;;;;;;3.08;2.15;;;;;;;2.41;98.75;98120.56;4963060;28;20053;-81
2021/11/27 06:44:47;;;;;;;2.78;2.42;;;;;;;2.43;98.82;98120.53;4957156;28;20046;-79
2021/11/27 06:47:16;;;;;;;2.63;2.38;;;;;;;2.43;98.68;98123.97;4950396;28;20092;-81
2021/11/27 06:49:43;;;;;;;2.35;2.15;;;;;;;2.45;98.83;98127.38;4944726;28;20272;-80
2021/11/27 06:52:11;;;;;;;4.40;2.38;;;;;;;2.47;98.62;98130.78;4962772;28;20101;-78
2021/11/27 06:54:39;;;;;;;2.55;2.35;;;;;;;2.49;98.45;98125.59;4968325;28;20049;-85
2021/11/27 06:57:08;;;;;;;2.88;2.60;;;;;;;2.52;98.80;98140.19;4958683;28;20046;-79
2021/11/27 06:59:37;;;;;;;2.63;2.42;;;;;;;2.53;98.32;98132.41;4981486;28;20105;-82
2021/11/27 07:02:04;;;;;;;2.85;2.65;;;;;;;2.55;98.24;98138.38;4976053;28;20575;-81
2021/11/27 07:04:33;;;;;;;3.15;2.85;;;;;;;2.55;98.06;98146.13;4961215;28;20042;-78
2021/11/27 07:07:00;;;;;;;3.72;3.30;;;;;;;2.59;98.22;98144.38;4962756;28;20136;-83
2021/11/27 07:09:26;;;;;;;4.20;3.80;;;;;;;2.61;97.88;98140.03;4978898;28;20046;-77
2021/11/27 07:11:53;;;;;;;3.97;3.25;;;;;;;2.61;97.93;98151.22;4961037;28;20112;-85
2021/11/27 07:14:20;;;;;;;4.15;3.75;;;;;;;2.61;97.65;98158.97;4943657;28;20050;-81
2021/11/27 07:16:46;;;;;;;3.70;2.95;;;;;;;2.64;97.52;98156.31;4963711;28;20054;-79
2021/11/27 07:19:15;;;;;;;3.33;2.92;;;;;;;2.67;97.61;98162.31;4981665;28;20057;-78
2021/11/27 07:21:41;;;;;;;4.60;3.50;;;;;;;2.68;97.81;98162.28;4955110;28;20619;-81
2021/11/27 07:24:08;;;;;;;4.13;3.65;;;;;;;2.69;97.96;98166.56;4961985;28;20032;-79
2021/11/27 07:26:35;;;;;;;2.92;2.67;;;;;;;2.70;97.97;98157.97;4958046;28;20145;-83
2021/11/27 07:29:02;;;;;;;3.08;2.47;;;;;;;2.71;98.02;98156.22;4963245;28;20489;-81
2021/11/27 07:31:28;;;;;;;3.72;2.75;;;;;;;2.72;97.80;98157.91;4957867;28;20054;-80
2021/11/27 07:33:54;;;;;;;3.30;2.97;;;;;;;2.72;97.83;98160.50;4959725;28;20046;-83
2021/11/27 07:36:21;;;;;;;2.60;2.40;;;;;;;2.72;98.16;98168.25;4962675;28;20054;-85
2021/11/27 07:38:48;;;;;;;3.85;3.38;;;;;;;2.71;98.19;98170.00;4964136;28;20599;-78
2021/11/27 07:41:15;;;;;;;3.88;2.63;;;;;;;2.75;97.84;98178.53;4953303;28;20705;-84
2021/11/27 07:43:41;;;;;;;7.28;2.95;;;;;;;2.75;98.88;98176.81;4955345;28;20516;-85
2021/11/27 07:46:08;;;;;;;3.53;2.97;;;;;;;2.73;98.54;98178.56;4976649;28;20141;-82
2021/11/27 07:48:35;;;;;;;4.75;3.47;;;;;;;2.75;98.98;98181.09;4975301;28;20173;-79
2021/11/27 07:51:03;;;;;;;3.60;3.30;;;;;;;2.76;99.00;98173.31;4963484;28;20501;-82
2021/11/27 07:53:30;;;;;;;3.70;2.95;;;;;;;2.77;98.95;98180.19;4954848;28;20051;-78
2021/11/27 07:55:57;;;;;;;3.47;2.78;;;;;;;2.78;98.79;98181.91;4941538;28;20050;-80
2021/11/27 07:58:24;;;;;;;4.70;3.33;;;;;;;2.80;99.36;98189.63;4958668;28;20054;-82
2021/11/27 08:00:51;;;;;;;4.93;3.55;;;;;;;2.77;99.16;98190.53;4956071;28;20046;-81
2021/11/27 08:03:17;;;;;;;3.63;3.17;;;;;;;2.75;98.95;98199.19;4978500;28;20050;-79
2021/11/27 08:05:44;;;;;;;4.55;2.70;;;;;;;2.73;99.41;98194.06;4953154;28;20122;-82
2021/11/27 08:08:10;;;;;;;4.20;3.13;;;;;;;2.74;99.59;98194.94;4959542;28;20050;-81
2021/11/27 08:10:41;;;;;;;4.60;3.13;;;;;;;2.79;99.96;98200.84;4961691;28;20054;-84
2021/11/27 08:13:07;;;;;;;3.78;3.25;;;;;;;2.83;99.42;98201.66;4973226;28;20404;-78
2021/11/27 08:15:34;;;;;;;4.35;3.38;;;;;;;2.86;99.58;98202.44;4981872;28;20501;-85
2021/11/27 08:18:01;;;;;;;4.75;3.92;;;;;;;2.92;99.71;98214.41;4987823;28;20926;-81
2021/11/27 08:20:29;;;;;;;4.00;3.53;;;;;;;2.96;99.27;98210.91;4953809;28;20057;-82
2021/11/27 08:22:55;;;;;;;3.75;2.90;;;;;;;3.00;99.30;98206.53;4964349;28;20085;-84
2021/11/27 08:25:23;;;;;;;5.35;3.40;;;;;;;3.00;98.77;98212.56;4961022;28;20108;-84
2021/11/27 08:27:49;;;;;;;3.50;3.10;;;;;;;2.98;99.14;98217.72;4962782;28;20157;-83
2021/11/27 08:30:17;;;;;;;3.78;3.45;;;;;;;2.98;99.43;98222.06;4954349;28;20042;-85
2021/11/27 08:32:48;;;;;;;5.90;3.03;;;;;;;2.98;99.77;98229.81;4976335;28;20100;-79
2021/11/27 08:35:15;;;;;;;4.30;3.90;;;;;;;2.99;99.68;98228.94;4985152;28;21076;-80
2021/11/27 08:37:42;;;;;;;3.92;3.35;;;;;;;3.04;100.00;98234.00;4963428;28;20395;-79
2021/11/27 08:40:09;;;;;;;5.53;4.40;;;;;;;3.08;99.74;98239.13;4979298;28;20050;-79
2021/11/27 08:42:37;;;;;;;4.20;3.80;;;;;;;3.10;99.51;98232.19;4974623;28;20141;-85
2021/11/27 08:45:07;;;;;;;6.30;3.60;;;;;;;3.15;99.41;98237.28;4977877;28;20046;-80
2021/11/27 08:47:33;;;;;;;5.78;4.45;;;;;;;3.17;99.81;98232.94;4981949;28;20069;-85
2021/11/27 08:50:00;;;;;;;8.90;4.35;;;;;;;3.23;99.91;98243.16;4983425;28;20077;-81
2021/11/27 08:52:28;;;;;;;4.03;3.65;;;;;;;3.29;99.87;98235.28;4965983;28;20499;-82
2021/11/27 08:54:55;;;;;;;6.43;4.50;;;;;;;3.34;99.59;98236.94;4973984;28;20049;-80
2021/11/27 08:57:23;;;;;;;4.38;3.97;;;;;;;3.39;98.95;98233.41;4977487;28;20045;-82
2021/11/27 08:59:50;;;;;;;5.05;4.35;;;;;;;3.47;99.24;98243.59;4975748;28;20046;-85
2021/11/27 09:02:19;;;;;;;6.93;3.83;;;;;;;3.51;98.35;98241.78;4971763;28;20053;-81
2021/11/27 09:04:45;;;;;;;4.05;3.63;;;;;;;3.53;99.00;98248.63;4960128;28;20061;-80
2021/11/27 09:07:12;;;;;;;4.82;3.83;;;;;;;3.59;98.79;98242.50;4973373;28;20089;-84
2021/11/27 09:09:39;;;;;;;3.63;3.28;;;;;;;3.66;98.72;98249.25;4977519;28;20050;-82
2021/11/27 09:12:08;;;;;;;5.13;3.92;;;;;;;3.77;98.45;98247.31;4959829;28;20050;-84
2021/11/27 09:14:36;;;;;;;5.75;3.72;;;;;;;3.85;98.01;98247.16;4971999;28;20120;-83
2021/11/27 09:17:06;;;;;;;3.28;2.97;;;;;;;3.91;97.85;98247.03;4993769;28;20042;-81
2021/11/27 09:19:32;;;;;;;3.95;3.58;;;;;;;3.96;97.54;98250.38;4972883;28;20042;-79
2021/11/27 09:21:59;;;;;;;3.40;3.10;;;;;;;3.94;96.98;98251.28;4959241;28;20505;-83
2021/11/27 09:24:26;;;;;;;5.53;3.15;;;;;;;3.91;97.09;98259.09;4995863;28;20495;-81
2021/11/27 09:26:53;;;;;;;5.75;3.67;;;;;;;3.89;97.72;98266.06;4944873;28;20046;-79
2021/11/27 09:29:20;;;;;;;3.83;2.97;;;;;;;3.91;97.83;98265.16;4963821;28;20049;-80
2021/11/27 09:31:48;;;;;;;3.75;3.33;;;;;;;3.92;97.59;98266.84;4962126;28;20496;-80
2021/11/27 09:34:15;;;;;;;3.35;3.05;;;;;;;3.96;97.54;98265.03;4975156;28;20056;-81
2021/11/27 09:36:44;;;;;;;3.90;3.35;;;;;;;3.98;97.65;98265.88;4949702;28;20141;-81
2021/11/27 09:39:14;;;;;;;3.47;3.08;;;;;;;4.02;96.50;98264.09;4945798;28;21439;-79
2021/11/27 09:41:42;;;;;;;3.25;2.95;;;;;;;4.05;96.87;98276.94;4962252;28;20100;-80
2021/11/27 09:44:11;;;;;;;3.53;2.70;;;;;;;4.06;96.29;98273.47;4960889;28;20493;-80
2021/11/27 09:46:43;;;;;;;3.20;2.80;;;;;;;4.02;96.49;98275.28;4973103;28;20069;-84
2021/11/27 09:49:17;;;;;;;3.75;3.45;;;;;;;4.01;96.86;98275.31;4946265;28;20052;-84
2021/11/27 09:51:46;;;;;;;3.95;3.55;;;;;;;4.05;96.88;98271.78;4936658;28;20058;-82
2021/11/27 09:54:16;;;;;;;3.40;3.10;;;;;;;4.06;95.96;98273.47;4979392;28;20492;-80
2021/11/27 09:56:45;;;;;;;2.85;2.60;;;;;;;4.10;96.23;98277.72;4966014;28;20068;-82
2021/11/27 09:59:12;;;;;;;4.20;3.00;;;;;;;4.09;95.85;98283.75;4979501;28;20163;-86
2021/11/27 10:01:44;;;;;;;4.15;3.50;;;;;;;4.12;96.25;98287.16;4969950;28;20046;-79
2021/11/27 10:04:13;;;;;;;5.13;3.85;;;;;;;4.23;95.74;98289.50;4942394;28;20065;-80
2021/11/27 10:06:43;;;;;;;3.28;2.97;;;;;;;4.29;95.72;98288.53;4967125;28;20077;-79
2021/11/27 10:09:14;;;;;;;3.25;2.90;;;;;;;4.42;95.41;98292.56;4962582;28;20503;-81
2021/11/27 10:11:43;;;;;;;3.40;2.83;;;;;;;4.49;93.79;98295.84;4954498;28;21922;-84
2021/11/27 10:14:10;;;;;;;5.63;2.90;;;;;;;4.56;94.36;98300.03;4966378;28;20129;-79
2021/11/27 10:16:59;;;;;;;2.75;2.58;;;;;;;4.62;93.38;98305.06;4963724;28;20053;-82
2021/11/27 10:19:30;;;;;;;2.78;2.58;;;;;;;4.65;92.84;98298.94;4968834;28;20285;-82
2021/11/27 10:22:03;;;;;;;1.80;1.70;;;;;;;4.61;92.62;98302.50;4957591;28;22572;-83
2021/11/27 10:24:36;;;;;;;3.10;2.58;;;;;;;4.57;92.24;98308.66;4955573;28;20631;-77
2021/11/27 10:27:06;;;;;;;2.58;2.13;;;;;;;4.55;93.07;98306.09;4965490;28;20080;-81
2021/11/27 10:29:36;;;;;;;2.58;2.25;;;;;;;4.55;92.39;98311.28;4966399;28;20041;-80
2021/11/27 10:32:12;;;;;;;2.70;2.28;;;;;;;4.49;92.78;98314.00;4968859;28;20633;-83
2021/11/27 10:34:48;;;;;;;1.60;1.50;;;;;;;4.51;92.04;98307.06;4969973;28;20521;-82
2021/11/27 10:37:33;;;;;;;1.73;1.63;;;;;;;4.50;92.14;98307.06;4962329;28;20046;-82
2021/11/27 10:40:14;;;;;;;1.55;1.45;;;;;;;4.45;91.74;98305.44;4951300;28;20056;-81
2021/11/27 10:42:51;;;;;;;1.88;1.73;;;;;;;4.47;91.93;98308.84;4961870;28;20060;-81
2021/11/27 10:45:28;;;;;;;2.13;2.00;;;;;;;4.40;91.71;98315.03;4949404;28;20049;-81
2021/11/27 10:48:25;;;;;;;2.42;1.80;;;;;;;4.38;91.40;98321.13;4965866;28;20058;-80
2021/11/27 10:51:00;;;;;;;1.73;1.63;;;;;;;4.34;92.18;98319.50;4968959;28;20846;-79
2021/11/27 10:53:42;;;;;;;1.60;1.50;;;;;;;4.33;92.19;98322.97;4966962;28;20052;-83
2021/11/27 10:56:11;;;;;;;2.53;2.33;;;;;;;4.30;92.55;98321.28;4952617;28;20471;-82
2021/11/27 10:59:01;;;;;;;4.30;1.60;;;;;;;4.27;92.43;98332.56;4961571;28;20176;-84
2021/11/27 11:01:29;;;;;;;2.10;1.90;;;;;;;4.26;92.48;98332.59;4962763;28;20508;-82
2021/11/27 11:03:56;;;;;;;1.80;1.67;;;;;;;4.26;92.28;98322.25;4962933;28;20630;-82
2021/11/27 11:06:25;;;;;;;2.00;1.88;;;;;;;4.26;92.67;98325.72;4979852;28;20226;-83
2021/11/27 11:08:55;;;;;;;2.53;1.73;;;;;;;4.25;91.64;98328.31;4962976;28;20049;-85
2021/11/27 11:11:21;;;;;;;4.95;1.85;;;;;;;4.21;90.77;98324.94;4962915;28;21127;-81
2021/11/27 11:13:54;;;;;;;2.20;2.00;;;;;;;4.21;90.95;98327.53;4961452;28;20050;-83
2021/11/27 11:16:25;;;;;;;1.98;1.85;;;;;;;4.21;90.08;98329.25;4965712;28;20050;-81
2021/11/27 11:18:53;;;;;;;2.08;1.90;;;;;;;4.24;90.34;98334.41;4964441;28;20042;-84
2021/11/27 11:21:24;;;;;;;1.80;1.70;;;;;;;4.32;90.40;98329.91;4956976;28;20053;-79
2021/11/27 11:23:50;;;;;;;1.88;1.77;;;;;;;4.42;90.00;98326.22;4964400;28;20132;-81
2021/11/27 11:26:23;;;;;;;2.10;1.95;;;;;;;4.49;89.54;98333.88;4957842;28;20058;-82
2021/11/27 11:28:56;;;;;;;2.00;1.80;;;;;;;4.54;88.20;98327.69;4967541;28;20198;-81
2021/11/27 11:31:38;;;;;;;2.60;2.33;;;;;;;4.56;89.05;98336.31;4961722;28;20041;-85
2021/11/27 11:34:04;;;;;;;1.80;1.70;;;;;;;4.55;85.97;98329.41;4973564;28;20049;-79
2021/11/27 11:36:35;;;;;;;2.00;1.83;;;;;;;4.52;87.54;98341.56;4965049;28;20038;-80
2021/11/27 11:39:02;;;;;;;2.03;1.90;;;;;;;4.47;87.43;98350.31;4972722;28;20073;-84
2021/11/27 11:41:29;;;;;;;2.40;2.20;;;;;;;4.39;86.94;98347.00;4985112;28;20054;-84
2021/11/27 11:43:57;;;;;;;2.25;2.05;;;;;;;4.32;86.78;98347.19;4977322;28;20057;-80
2021/11/27 11:46:25;;;;;;;2.25;2.08;;;;;;;4.23;86.46;98343.03;4975707;28;20843;-86
2021/11/27 11:48:57;;;;;;;2.95;2.45;;;;;;;4.25;87.11;98344.72;5002740;28;20040;-83